sensor_id;sensor_type;location;lat;lon;timestamp;pressure;altitude;pressure_sealevel;temperature;humidity
50250;BME280;36133;42.522;27.456;2023-07-08T00:02:12;100996.94;;;27.19;50.09
50250;BME280;36133;42.522;27.456;2023-07-08T00:04:39;101059.50;;;27.83;49.05
50250;BME280;36133;42.522;27.456;2023-07-08T00:07:05;100645.50;;;24.09;51.70
50250;BME280;36133;42.522;27.456;2023-07-08T00:09:35;100587.41;;;23.70;52.36
50250;BME280;36133;42.522;27.456;2023-07-08T00:12:01;100682.63;;;24.57;51.23
50250;BME280;36133;42.522;27.456;2023-07-08T00:14:29;100655.44;;;24.15;51.48
50250;BME280;36133;42.522;27.456;2023-07-08T00:16:55;100566.41;;;23.94;50.96
50250;BME280;36133;42.522;27.456;2023-07-08T00:19:20;100886.06;;;25.77;51.06
50250;BME280;36133;42.522;27.456;2023-07-08T00:21:49;101066.97;;;27.24;50.24
50250;BME280;36133;42.522;27.456;2023-07-08T00:24:16;101060.16;;;27.11;50.78
50250;BME280;36133;42.522;27.456;2023-07-08T00:26:42;100697.53;;;25.26;49.43
50250;BME280;36133;42.522;27.456;2023-07-08T00:29:11;100845.59;;;26.65;48.27
50250;BME280;36133;42.522;27.456;2023-07-08T00:31:38;101062.63;;;27.47;49.45
50250;BME280;36133;42.522;27.456;2023-07-08T00:34:04;100834.06;;;25.79;50.46
50250;BME280;36133;42.522;27.456;2023-07-08T00:36:30;100691.84;;;25.07;50.12
50250;BME280;36133;42.522;27.456;2023-07-08T00:38:58;100910.88;;;26.42;49.58
50250;BME280;36133;42.522;27.456;2023-07-08T00:41:31;100685.69;;;24.61;50.66
50250;BME280;36133;42.522;27.456;2023-07-08T00:43:59;100831.69;;;25.57;50.35
50250;BME280;36133;42.522;27.456;2023-07-08T00:46:33;100799.03;;;26.04;48.58
50250;BME280;36133;42.522;27.456;2023-07-08T00:51:44;101059.25;;;26.82;50.76
50250;BME280;36133;42.522;27.456;2023-07-08T00:54:17;100790.13;;;25.67;48.99
50250;BME280;36133;42.522;27.456;2023-07-08T00:57:01;101071.16;;;27.27;49.46
50250;BME280;36133;42.522;27.456;2023-07-08T00:59:31;101091.28;;;26.54;51.67
50250;BME280;36133;42.522;27.456;2023-07-08T01:02:01;101086.47;;;26.70;51.62
50250;BME280;36133;42.522;27.456;2023-07-08T01:04:32;100956.47;;;26.05;51.01
50250;BME280;36133;42.522;27.456;2023-07-08T01:07:01;100971.72;;;26.47;50.34
50250;BME280;36133;42.522;27.456;2023-07-08T01:09:35;101039.28;;;26.90;50.36
50250;BME280;36133;42.522;27.456;2023-07-08T01:12:04;101088.16;;;27.44;49.71
50250;BME280;36133;42.522;27.456;2023-07-08T01:14:34;101104.34;;;27.66;49.47
50250;BME280;36133;42.522;27.456;2023-07-08T01:17:01;101027.25;;;27.34;49.07
50250;BME280;36133;42.522;27.456;2023-07-08T01:19:27;101098.13;;;27.45;49.11
50250;BME280;36133;42.522;27.456;2023-07-08T01:22:01;101063.59;;;27.61;48.58
50250;BME280;36133;42.522;27.456;2023-07-08T01:24:29;100863.22;;;26.45;48.20
50250;BME280;36133;42.522;27.456;2023-07-08T01:26:57;100692.56;;;24.63;50.09
50250;BME280;36133;42.522;27.456;2023-07-08T01:29:23;100690.84;;;24.77;49.46
50250;BME280;36133;42.522;27.456;2023-07-08T01:31:49;100942.13;;;26.76;48.55
50250;BME280;36133;42.522;27.456;2023-07-08T01:34:16;100842.81;;;25.96;49.27
50250;BME280;36133;42.522;27.456;2023-07-08T01:36:47;100904.25;;;25.88;50.41
50250;BME280;36133;42.522;27.456;2023-07-08T01:39:17;100857.59;;;24.81;52.82
50250;BME280;36133;42.522;27.456;2023-07-08T01:41:44;101080.78;;;26.95;51.13
50250;BME280;36133;42.522;27.456;2023-07-08T01:44:33;101074.06;;;26.62;51.68
50250;BME280;36133;42.522;27.456;2023-07-08T01:47:25;101022.44;;;26.37;51.41
50250;BME280;36133;42.522;27.456;2023-07-08T01:49:50;100821.19;;;24.18;53.75
50250;BME280;36133;42.522;27.456;2023-07-08T01:52:17;100762.16;;;23.89;53.40
50250;BME280;36133;42.522;27.456;2023-07-08T01:54:43;100790.28;;;24.21;53.14
50250;BME280;36133;42.522;27.456;2023-07-08T01:57:09;100585.44;;;23.09;52.65
50250;BME280;36133;42.522;27.456;2023-07-08T01:59:34;101027.03;;;25.92;52.30
50250;BME280;36133;42.522;27.456;2023-07-08T02:02:00;100821.19;;;24.34;53.21
50250;BME280;36133;42.522;27.456;2023-07-08T02:04:26;101099.56;;;25.23;55.56
50250;BME280;36133;42.522;27.456;2023-07-08T02:06:59;100882.09;;;23.96;55.55
50250;BME280;36133;42.522;27.456;2023-07-08T02:09:26;100764.81;;;23.43;55.03
50250;BME280;36133;42.522;27.456;2023-07-08T02:11:53;100822.03;;;24.49;53.05
50250;BME280;36133;42.522;27.456;2023-07-08T02:14:19;100789.16;;;24.68;52.09
50250;BME280;36133;42.522;27.456;2023-07-08T02:16:44;101115.56;;;26.67;52.06
50250;BME280;36133;42.522;27.456;2023-07-08T02:19:10;100962.28;;;25.08;53.57
50250;BME280;36133;42.522;27.456;2023-07-08T02:21:39;100925.50;;;25.13;53.40
50250;BME280;36133;42.522;27.456;2023-07-08T02:24:05;100809.06;;;24.14;53.50
50250;BME280;36133;42.522;27.456;2023-07-08T02:26:31;100946.47;;;24.58;54.75
50250;BME280;36133;42.522;27.456;2023-07-08T02:29:00;100684.41;;;23.87;52.54
50250;BME280;36133;42.522;27.456;2023-07-08T02:31:26;100826.34;;;25.06;51.95
50250;BME280;36133;42.522;27.456;2023-07-08T02:33:53;100949.56;;;25.02;53.61
50250;BME280;36133;42.522;27.456;2023-07-08T02:36:19;100615.59;;;22.68;54.19
50250;BME280;36133;42.522;27.456;2023-07-08T02:38:45;101126.66;;;25.72;54.79
50250;BME280;36133;42.522;27.456;2023-07-08T02:41:11;100949.25;;;24.94;53.84
50250;BME280;36133;42.522;27.456;2023-07-08T02:43:37;100847.94;;;24.69;52.44
50250;BME280;36133;42.522;27.456;2023-07-08T02:46:03;100969.47;;;25.99;51.46
50250;BME280;36133;42.522;27.456;2023-07-08T02:48:29;100883.06;;;25.63;50.89
50250;BME280;36133;42.522;27.456;2023-07-08T02:51:02;100978.50;;;25.46;52.90
50250;BME280;36133;42.522;27.456;2023-07-08T02:53:28;100682.06;;;23.13;53.94
50250;BME280;36133;42.522;27.456;2023-07-08T02:55:54;100629.28;;;23.77;51.86
50250;BME280;36133;42.522;27.456;2023-07-08T02:58:20;100697.34;;;24.37;51.01
50250;BME280;36133;42.522;27.456;2023-07-08T03:00:54;100665.13;;;23.66;52.67
50250;BME280;36133;42.522;27.456;2023-07-08T03:03:23;100970.25;;;25.15;53.25
50250;BME280;36133;42.522;27.456;2023-07-08T03:08:33;100615.44;;;23.05;52.92
50250;BME280;36133;42.522;27.456;2023-07-08T03:11:01;100972.09;;;25.70;52.30
50250;BME280;36133;42.522;27.456;2023-07-08T03:13:28;100862.00;;;24.88;52.71
50250;BME280;36133;42.522;27.456;2023-07-08T03:15:54;100853.19;;;25.65;50.70
50250;BME280;36133;42.522;27.456;2023-07-08T03:18:21;100971.50;;;26.33;50.20
50250;BME280;36133;42.522;27.456;2023-07-08T03:20:49;100689.28;;;24.46;50.40
50250;BME280;36133;42.522;27.456;2023-07-08T03:23:15;100913.84;;;26.50;49.51
50250;BME280;36133;42.522;27.456;2023-07-08T03:25:40;101111.25;;;27.34;50.41
50250;BME280;36133;42.522;27.456;2023-07-08T03:28:06;101132.47;;;27.49;50.15
50250;BME280;36133;42.522;27.456;2023-07-08T03:30:33;101120.44;;;27.93;49.11
50250;BME280;36133;42.522;27.456;2023-07-08T03:33:00;100920.56;;;25.95;50.38
50250;BME280;36133;42.522;27.456;2023-07-08T03:35:25;101085.03;;;27.22;50.16
50250;BME280;36133;42.522;27.456;2023-07-08T03:37:52;101134.50;;;28.01;49.07
50250;BME280;36133;42.522;27.456;2023-07-08T03:40:17;101137.19;;;27.49;50.23
50250;BME280;36133;42.522;27.456;2023-07-08T03:42:43;101064.69;;;27.02;50.27
50250;BME280;36133;42.522;27.456;2023-07-08T03:45:12;100976.84;;;27.32;48.36
50250;BME280;36133;42.522;27.456;2023-07-08T03:47:37;101113.78;;;27.94;48.82
50250;BME280;36133;42.522;27.456;2023-07-08T03:50:03;101120.16;;;27.60;49.49
50250;BME280;36133;42.522;27.456;2023-07-08T03:52:29;101105.44;;;27.94;48.30
50250;BME280;36133;42.522;27.456;2023-07-08T03:54:54;100960.69;;;27.39;47.56
50250;BME280;36133;42.522;27.456;2023-07-08T03:57:21;101090.88;;;27.49;49.15
50250;BME280;36133;42.522;27.456;2023-07-08T03:59:47;100862.66;;;26.04;49.68
50250;BME280;36133;42.522;27.456;2023-07-08T04:02:12;100945.56;;;27.02;48.21
50250;BME280;36133;42.522;27.456;2023-07-08T04:04:41;101156.75;;;27.96;49.23
50250;BME280;36133;42.522;27.456;2023-07-08T04:07:07;100730.19;;;26.02;47.46
50250;BME280;36133;42.522;27.456;2023-07-08T04:09:32;101159.53;;;28.92;46.94
50250;BME280;36133;42.522;27.456;2023-07-08T04:11:58;100978.16;;;27.39;47.68
50250;BME280;36133;42.522;27.456;2023-07-08T04:14:25;100995.91;;;27.67;47.12
50250;BME280;36133;42.522;27.456;2023-07-08T04:16:58;100866.28;;;26.43;47.93
50250;BME280;36133;42.522;27.456;2023-07-08T04:19:25;100968.97;;;27.92;46.23
50250;BME280;36133;42.522;27.456;2023-07-08T04:21:52;101162.69;;;29.04;46.50
50250;BME280;36133;42.522;27.456;2023-07-08T04:24:18;100848.66;;;26.63;46.93
50250;BME280;36133;42.522;27.456;2023-07-08T04:26:46;101169.09;;;28.38;47.30
50250;BME280;36133;42.522;27.456;2023-07-08T04:29:15;100819.44;;;26.18;47.53
50250;BME280;36133;42.522;27.456;2023-07-08T04:31:41;101022.03;;;27.32;47.46
50250;BME280;36133;42.522;27.456;2023-07-08T04:34:08;100729.41;;;26.25;46.21
50250;BME280;36133;42.522;27.456;2023-07-08T04:36:34;101094.66;;;28.59;46.21
50250;BME280;36133;42.522;27.456;2023-07-08T04:39:00;101168.88;;;28.77;46.53
50250;BME280;36133;42.522;27.456;2023-07-08T04:41:26;101099.00;;;28.89;45.37
50250;BME280;36133;42.522;27.456;2023-07-08T04:43:54;100948.47;;;27.16;46.33
50250;BME280;36133;42.522;27.456;2023-07-08T04:46:35;101170.09;;;27.65;47.64
50250;BME280;36133;42.522;27.456;2023-07-08T04:49:03;101132.16;;;28.62;45.75
50250;BME280;36133;42.522;27.456;2023-07-08T04:51:31;101178.75;;;28.88;45.39
50250;BME280;36133;42.522;27.456;2023-07-08T04:53:57;101117.47;;;27.84;46.73
50250;BME280;36133;42.522;27.456;2023-07-08T04:56:22;101148.28;;;28.59;45.44
50250;BME280;36133;42.522;27.456;2023-07-08T04:58:49;100925.19;;;26.83;45.96
50250;BME280;36133;42.522;27.456;2023-07-08T05:01:15;101070.16;;;27.99;45.26
50250;BME280;36133;42.522;27.456;2023-07-08T05:03:41;101171.16;;;28.27;46.28
50250;BME280;36133;42.522;27.456;2023-07-08T05:06:06;101006.28;;;27.81;44.98
50250;BME280;36133;42.522;27.456;2023-07-08T05:08:32;100940.22;;;27.35;44.97
50250;BME280;36133;42.522;27.456;2023-07-08T05:10:57;101103.56;;;27.89;45.24
50250;BME280;36133;42.522;27.456;2023-07-08T05:13:24;100757.06;;;25.52;46.16
50250;BME280;36133;42.522;27.456;2023-07-08T05:15:49;100980.94;;;26.32;47.80
50250;BME280;36133;42.522;27.456;2023-07-08T05:18:15;101127.75;;;27.84;45.73
50250;BME280;36133;42.522;27.456;2023-07-08T05:20:41;101151.91;;;27.10;48.11
50250;BME280;36133;42.522;27.456;2023-07-08T05:23:08;100985.38;;;26.72;46.80
50250;BME280;36133;42.522;27.456;2023-07-08T05:25:35;100994.00;;;27.34;45.54
50250;BME280;36133;42.522;27.456;2023-07-08T05:28:00;100751.47;;;26.07;44.89
50250;BME280;36133;42.522;27.456;2023-07-08T05:30:29;100799.25;;;26.75;44.01
50250;BME280;36133;42.522;27.456;2023-07-08T05:32:55;100986.88;;;27.28;44.76
50250;BME280;36133;42.522;27.456;2023-07-08T05:35:20;100714.47;;;26.26;43.77
50250;BME280;36133;42.522;27.456;2023-07-08T05:37:46;100999.41;;;28.77;41.71
50250;BME280;36133;42.522;27.456;2023-07-08T05:40:15;100887.16;;;28.46;41.24
50250;BME280;36133;42.522;27.456;2023-07-08T05:42:41;100722.56;;;27.94;40.31
50250;BME280;36133;42.522;27.456;2023-07-08T05:45:07;100921.88;;;28.62;41.52
50250;BME280;36133;42.522;27.456;2023-07-08T05:47:32;100702.44;;;27.32;40.73
50250;BME280;36133;42.522;27.456;2023-07-08T05:49:58;101063.47;;;29.97;40.51
50250;BME280;36133;42.522;27.456;2023-07-08T05:52:24;101138.78;;;30.33;40.71
50250;BME280;36133;42.522;27.456;2023-07-08T05:54:49;101135.00;;;31.29;38.82
50250;BME280;36133;42.522;27.456;2023-07-08T05:57:15;101114.06;;;30.82;39.23
50250;BME280;36133;42.522;27.456;2023-07-08T05:59:40;100969.53;;;28.88;40.98
50250;BME280;36133;42.522;27.456;2023-07-08T06:02:10;100956.00;;;28.81;40.96
50250;BME280;36133;42.522;27.456;2023-07-08T06:04:36;101157.97;;;30.35;40.46
50250;BME280;36133;42.522;27.456;2023-07-08T06:07:01;100922.03;;;29.17;39.75
50250;BME280;36133;42.522;27.456;2023-07-08T06:09:37;100755.66;;;28.69;38.99
50250;BME280;36133;42.522;27.456;2023-07-08T06:12:02;100960.47;;;31.37;36.89
50250;BME280;36133;42.522;27.456;2023-07-08T06:14:28;101018.75;;;30.08;38.77
50250;BME280;36133;42.522;27.456;2023-07-08T06:16:54;100758.72;;;28.68;38.46
50250;BME280;36133;42.522;27.456;2023-07-08T06:19:20;100828.34;;;28.90;39.23
50250;BME280;36133;42.522;27.456;2023-07-08T06:21:46;100995.94;;;29.51;39.84
50250;BME280;36133;42.522;27.456;2023-07-08T06:24:12;100671.66;;;27.85;39.38
50250;BME280;36133;42.522;27.456;2023-07-08T06:26:40;100943.69;;;29.20;39.60
50250;BME280;36133;42.522;27.456;2023-07-08T06:29:05;100744.75;;;29.28;37.67
50250;BME280;36133;42.522;27.456;2023-07-08T06:31:37;100984.09;;;30.14;38.71
50250;BME280;36133;42.522;27.456;2023-07-08T06:34:03;100759.66;;;28.63;38.86
50250;BME280;36133;42.522;27.456;2023-07-08T06:36:30;100710.63;;;28.72;38.72
50250;BME280;36133;42.522;27.456;2023-07-08T06:38:55;100757.13;;;29.22;37.62
50250;BME280;36133;42.522;27.456;2023-07-08T06:41:21;101022.44;;;31.03;37.75
50250;BME280;36133;42.522;27.456;2023-07-08T06:43:56;100726.53;;;28.20;39.13
50250;BME280;36133;42.522;27.456;2023-07-08T06:46:23;101137.31;;;30.36;39.03
50250;BME280;36133;42.522;27.456;2023-07-08T06:49:09;100751.81;;;27.49;39.98
50250;BME280;36133;42.522;27.456;2023-07-08T06:51:38;101014.00;;;30.22;38.15
50250;BME280;36133;42.522;27.456;2023-07-08T06:54:07;100736.50;;;29.95;36.32
50250;BME280;36133;42.522;27.456;2023-07-08T06:56:42;100787.56;;;31.54;34.16
50250;BME280;36133;42.522;27.456;2023-07-08T06:59:10;100776.56;;;31.40;33.97
50250;BME280;36133;42.522;27.456;2023-07-08T07:01:47;101157.31;;;33.10;34.17
50250;BME280;36133;42.522;27.456;2023-07-08T07:04:13;101014.84;;;33.14;33.15
50250;BME280;36133;42.522;27.456;2023-07-08T07:06:38;100772.47;;;30.58;34.78
50250;BME280;36133;42.522;27.456;2023-07-08T07:09:10;100871.09;;;31.51;34.24
50250;BME280;36133;42.522;27.456;2023-07-08T07:11:36;101020.56;;;30.98;36.00
50250;BME280;36133;42.522;27.456;2023-07-08T07:14:11;100840.38;;;29.40;36.80
50250;BME280;36133;42.522;27.456;2023-07-08T07:16:39;101064.16;;;30.72;37.20
50250;BME280;36133;42.522;27.456;2023-07-08T07:19:05;100841.25;;;28.67;38.08
50250;BME280;36133;42.522;27.456;2023-07-08T07:21:33;100972.97;;;30.00;37.46
50250;BME280;36133;42.522;27.456;2023-07-08T07:24:02;100778.91;;;29.28;36.59
50250;BME280;36133;42.522;27.456;2023-07-08T07:26:31;100874.25;;;29.42;37.42
50250;BME280;36133;42.522;27.456;2023-07-08T07:29:07;101050.56;;;31.15;36.73
50250;BME280;36133;42.522;27.456;2023-07-08T07:31:38;100928.38;;;31.57;34.46
50250;BME280;36133;42.522;27.456;2023-07-08T07:34:14;100749.47;;;29.99;35.33
50250;BME280;36133;42.522;27.456;2023-07-08T07:37:02;101030.28;;;31.23;35.84
50250;BME280;36133;42.522;27.456;2023-07-08T07:39:31;100783.19;;;30.43;34.89
50250;BME280;36133;42.522;27.456;2023-07-08T07:42:02;100811.44;;;30.81;34.58
50250;BME280;36133;42.522;27.456;2023-07-08T07:44:28;101062.53;;;32.57;34.00
50250;BME280;36133;42.522;27.456;2023-07-08T07:47:12;100891.63;;;31.15;34.75
50250;BME280;36133;42.522;27.456;2023-07-08T07:49:38;101195.19;;;33.51;34.23
50250;BME280;36133;42.522;27.456;2023-07-08T07:52:13;100739.31;;;31.45;32.89
50250;BME280;36133;42.522;27.456;2023-07-08T07:54:55;100738.47;;;32.69;31.33
50250;BME280;36133;42.522;27.456;2023-07-08T08:01:00;100829.84;;;30.90;34.81
50250;BME280;36133;42.522;27.456;2023-07-08T08:03:28;100760.38;;;32.58;32.12
50250;BME280;36133;42.522;27.456;2023-07-08T08:06:10;101058.41;;;34.97;30.86
50250;BME280;36133;42.522;27.456;2023-07-08T08:08:38;100745.97;;;30.39;34.77
50250;BME280;36133;42.522;27.456;2023-07-08T08:11:37;100781.56;;;31.87;33.19
50250;BME280;36133;42.522;27.456;2023-07-08T08:14:05;101037.75;;;32.99;33.52
50250;BME280;36133;42.522;27.456;2023-07-08T08:16:31;100794.81;;;32.24;32.35
50250;BME280;36133;42.522;27.456;2023-07-08T08:19:12;101033.25;;;33.32;33.04
50250;BME280;36133;42.522;27.456;2023-07-08T08:21:40;100945.09;;;31.96;34.15
50250;BME280;36133;42.522;27.456;2023-07-08T08:24:06;100911.06;;;31.86;34.32
50250;BME280;36133;42.522;27.456;2023-07-08T08:26:41;100770.69;;;32.02;33.25
50250;BME280;36133;42.522;27.456;2023-07-08T08:29:14;100800.69;;;30.97;34.46
50250;BME280;36133;42.522;27.456;2023-07-08T08:31:43;100919.78;;;31.84;34.43
50250;BME280;36133;42.522;27.456;2023-07-08T08:34:15;100760.31;;;30.85;34.56
50250;BME280;36133;42.522;27.456;2023-07-08T08:36:41;101013.13;;;33.30;33.54
50250;BME280;36133;42.522;27.456;2023-07-08T08:39:08;100948.09;;;31.60;35.14
50250;BME280;36133;42.522;27.456;2023-07-08T08:41:36;100876.25;;;32.70;32.93
50250;BME280;36133;42.522;27.456;2023-07-08T08:44:06;100822.44;;;32.00;33.46
50250;BME280;36133;42.522;27.456;2023-07-08T08:51:49;101170.56;;;34.00;33.68
50250;BME280;36133;42.522;27.456;2023-07-08T08:54:34;101184.59;;;33.91;33.64
50250;BME280;36133;42.522;27.456;2023-07-08T08:57:32;101091.66;;;33.34;33.60
50250;BME280;36133;42.522;27.456;2023-07-08T09:00:34;100877.34;;;33.03;32.50
50250;BME280;36133;42.522;27.456;2023-07-08T09:06:35;101027.34;;;33.80;32.88
50250;BME280;36133;42.522;27.456;2023-07-08T09:09:33;100873.38;;;34.43;30.43
50250;BME280;36133;42.522;27.456;2023-07-08T09:12:26;101062.09;;;34.18;31.85
50250;BME280;36133;42.522;27.456;2023-07-08T09:15:15;101025.03;;;34.12;31.17
50250;BME280;36133;42.522;27.456;2023-07-08T09:17:44;100836.69;;;32.59;32.01
50250;BME280;36133;42.522;27.456;2023-07-08T09:20:37;100756.25;;;31.83;32.70
50250;BME280;36133;42.522;27.456;2023-07-08T09:23:18;100747.84;;;31.57;32.17
50250;BME280;36133;42.522;27.456;2023-07-08T09:26:11;100770.69;;;31.94;32.25
50250;BME280;36133;42.522;27.456;2023-07-08T09:28:42;101044.59;;;33.83;32.23
50250;BME280;36133;42.522;27.456;2023-07-08T09:31:23;100936.63;;;32.53;33.42
50250;BME280;36133;42.522;27.456;2023-07-08T09:34:06;101023.31;;;34.49;30.74
50250;BME280;36133;42.522;27.456;2023-07-08T09:36:38;100819.28;;;32.27;32.27
50250;BME280;36133;42.522;27.456;2023-07-08T09:39:12;101057.53;;;34.34;30.45
50250;BME280;36133;42.522;27.456;2023-07-08T09:41:40;101040.28;;;34.94;29.93
50250;BME280;36133;42.522;27.456;2023-07-08T09:44:22;101163.72;;;35.69;30.88
50250;BME280;36133;42.522;27.456;2023-07-08T09:46:55;100873.94;;;35.64;28.05
50250;BME280;36133;42.522;27.456;2023-07-08T09:49:34;101025.94;;;34.54;30.76
50250;BME280;36133;42.522;27.456;2023-07-08T09:52:01;100937.38;;;33.53;31.16
50250;BME280;36133;42.522;27.456;2023-07-08T09:54:27;101019.06;;;35.06;30.03
50250;BME280;36133;42.522;27.456;2023-07-08T09:59:31;101007.38;;;36.34;27.29
50250;BME280;36133;42.522;27.456;2023-07-08T10:02:19;100678.44;;;32.46;29.78
50250;BME280;36133;42.522;27.456;2023-07-08T10:04:52;101151.09;;;35.21;30.27
50250;BME280;36133;42.522;27.456;2023-07-08T10:07:28;100988.16;;;33.72;30.54
50250;BME280;36133;42.522;27.456;2023-07-08T10:10:10;100655.44;;;32.49;30.06
50250;BME280;36133;42.522;27.456;2023-07-08T10:12:46;101092.13;;;38.67;25.73
50250;BME280;36133;42.522;27.456;2023-07-08T10:15:27;100838.31;;;34.82;28.37
50250;BME280;36133;42.522;27.456;2023-07-08T10:17:58;100880.56;;;35.35;28.13
50250;BME280;36133;42.522;27.456;2023-07-08T10:23:19;100929.34;;;36.03;27.34
50250;BME280;36133;42.522;27.456;2023-07-08T10:25:58;100704.22;;;35.89;25.64
50250;BME280;36133;42.522;27.456;2023-07-08T10:28:57;100758.81;;;36.48;25.71
50250;BME280;36133;42.522;27.456;2023-07-08T10:35:21;100842.22;;;36.44;26.58
50250;BME280;36133;42.522;27.456;2023-07-08T10:38:09;100661.69;;;31.47;31.25
50250;BME280;36133;42.522;27.456;2023-07-08T10:40:58;100870.22;;;32.33;32.54
50250;BME280;36133;42.522;27.456;2023-07-08T10:43:48;101128.72;;;34.03;31.97
50250;BME280;36133;42.522;27.456;2023-07-08T10:52:15;101043.09;;;35.97;28.44
50250;BME280;36133;42.522;27.456;2023-07-08T10:55:25;100887.06;;;34.57;29.24
50250;BME280;36133;42.522;27.456;2023-07-08T11:00:45;101120.09;;;33.70;31.94
50250;BME280;36133;42.522;27.456;2023-07-08T11:06:26;100830.84;;;31.34;32.13
50250;BME280;36133;42.522;27.456;2023-07-08T11:08:59;100956.56;;;33.25;30.41
50250;BME280;36133;42.522;27.456;2023-07-08T11:11:52;101114.00;;;35.37;28.79
50250;BME280;36133;42.522;27.456;2023-07-08T11:14:42;101108.53;;;36.10;28.21
50250;BME280;36133;42.522;27.456;2023-07-08T11:17:32;100697.13;;;33.63;28.04
50250;BME280;36133;42.522;27.456;2023-07-08T11:20:28;100742.41;;;32.85;29.43
50250;BME280;36133;42.522;27.456;2023-07-08T11:23:05;101062.34;;;35.17;29.28
50250;BME280;36133;42.522;27.456;2023-07-08T11:29:09;100744.72;;;34.62;27.55
50250;BME280;36133;42.522;27.456;2023-07-08T11:31:41;101100.88;;;37.24;26.76
50250;BME280;36133;42.522;27.456;2023-07-08T11:34:11;100683.75;;;32.68;28.91
50250;BME280;36133;42.522;27.456;2023-07-08T11:36:44;100949.44;;;34.87;28.60
50250;BME280;36133;42.522;27.456;2023-07-08T11:39:28;100936.88;;;34.93;28.21
50250;BME280;36133;42.522;27.456;2023-07-08T11:42:16;101113.28;;;35.85;28.70
50250;BME280;36133;42.522;27.456;2023-07-08T11:45:29;100952.66;;;33.55;30.27
50250;BME280;36133;42.522;27.456;2023-07-08T11:48:06;100741.38;;;29.89;34.11
50250;BME280;36133;42.522;27.456;2023-07-08T11:50:50;101134.13;;;31.96;35.44
50250;BME280;36133;42.522;27.456;2023-07-08T11:56:02;100995.72;;;31.72;34.38
50250;BME280;36133;42.522;27.456;2023-07-08T12:02:31;101118.72;;;34.23;31.82
50250;BME280;36133;42.522;27.456;2023-07-08T12:08:33;100778.28;;;33.84;29.44
50250;BME280;36133;42.522;27.456;2023-07-08T12:11:10;100976.75;;;33.47;32.59
50250;BME280;36133;42.522;27.456;2023-07-08T12:13:48;100720.78;;;30.44;34.55
50250;BME280;36133;42.522;27.456;2023-07-08T12:16:14;100677.59;;;28.98;36.45
50250;BME280;36133;42.522;27.456;2023-07-08T12:18:48;100903.56;;;30.40;36.95
50250;BME280;36133;42.522;27.456;2023-07-08T12:21:19;100738.28;;;29.05;37.60
50250;BME280;36133;42.522;27.456;2023-07-08T12:24:23;100689.91;;;27.91;38.37
50250;BME280;36133;42.522;27.456;2023-07-08T12:27:22;100711.53;;;26.71;42.33
50250;BME280;36133;42.522;27.456;2023-07-08T12:33:28;101014.81;;;27.02;47.53
50250;BME280;36133;42.522;27.456;2023-07-08T12:36:10;100749.38;;;25.88;46.94
50250;BME280;36133;42.522;27.456;2023-07-08T12:45:04;100710.81;;;26.84;45.68
50250;BME280;36133;42.522;27.456;2023-07-08T12:47:43;100702.41;;;27.13;44.99
50250;BME280;36133;42.522;27.456;2023-07-08T12:50:16;100684.06;;;25.14;49.07
50250;BME280;36133;42.522;27.456;2023-07-08T12:53:14;101014.53;;;27.33;49.29
50250;BME280;36133;42.522;27.456;2023-07-08T12:55:59;100686.47;;;24.66;51.08
50250;BME280;36133;42.522;27.456;2023-07-08T13:02:38;100669.53;;;23.88;53.60
50250;BME280;36133;42.522;27.456;2023-07-08T13:08:51;100727.66;;;24.27;54.67
50250;BME280;36133;42.522;27.456;2023-07-08T13:15:01;100756.06;;;24.63;54.03
50250;BME280;36133;42.522;27.456;2023-07-08T13:17:45;100712.47;;;24.60;53.82
50250;BME280;36133;42.522;27.456;2023-07-08T13:20:48;100762.00;;;26.05;50.49
50250;BME280;36133;42.522;27.456;2023-07-08T13:23:59;100810.28;;;25.83;50.41
50250;BME280;36133;42.522;27.456;2023-07-08T13:26:49;100804.78;;;26.17;49.41
50250;BME280;36133;42.522;27.456;2023-07-08T13:29:19;100770.13;;;27.26;47.17
50250;BME280;36133;42.522;27.456;2023-07-08T13:32:03;100808.72;;;28.02;45.64
50250;BME280;36133;42.522;27.456;2023-07-08T13:38:19;101209.44;;;32.41;42.03
50250;BME280;36133;42.522;27.456;2023-07-08T13:41:06;100829.19;;;29.32;43.31
50250;BME280;36133;42.522;27.456;2023-07-08T13:43:48;100785.69;;;28.67;43.04
50250;BME280;36133;42.522;27.456;2023-07-08T13:46:51;100761.38;;;27.37;45.74
50250;BME280;36133;42.522;27.456;2023-07-08T13:52:47;101024.13;;;27.17;48.85
50250;BME280;36133;42.522;27.456;2023-07-08T13:58:26;100917.59;;;26.65;48.21
50250;BME280;36133;42.522;27.456;2023-07-08T14:00:53;100794.69;;;26.32;46.29
50250;BME280;36133;42.522;27.456;2023-07-08T14:03:47;101235.75;;;28.62;47.23
50250;BME280;36133;42.522;27.456;2023-07-08T14:06:38;100753.38;;;25.67;46.80
50250;BME280;36133;42.522;27.456;2023-07-08T14:12:26;100762.59;;;24.82;48.61
50250;BME280;36133;42.522;27.456;2023-07-08T14:14:55;100765.75;;;23.89;51.25
50250;BME280;36133;42.522;27.456;2023-07-08T14:17:41;100791.91;;;24.78;50.36
50250;BME280;36133;42.522;27.456;2023-07-08T14:20:11;100784.06;;;25.21;48.60
50250;BME280;36133;42.522;27.456;2023-07-08T14:22:41;101207.06;;;27.51;50.15
50250;BME280;36133;42.522;27.456;2023-07-08T14:25:17;100736.38;;;24.85;50.10
50250;BME280;36133;42.522;27.456;2023-07-08T14:28:17;101241.69;;;28.21;48.75
50250;BME280;36133;42.522;27.456;2023-07-08T14:30:52;100758.47;;;25.50;48.39
50250;BME280;36133;42.522;27.456;2023-07-08T14:33:23;101085.25;;;26.86;49.89
50250;BME280;36133;42.522;27.456;2023-07-08T14:35:58;101050.78;;;27.70;47.70